createdAt,value
2023-03-17T00:01:28.498Z,100586.38
2023-03-17T00:03:59.222Z,100581.94
2023-03-17T00:06:35.675Z,100579.97
2023-03-17T00:09:15.277Z,100569.53
2023-03-17T00:11:47.127Z,100567.91
2023-03-17T00:14:17.074Z,100567.91
2023-03-17T00:16:51.589Z,100561.09
2023-03-17T00:19:30.277Z,100561.09
2023-03-17T00:22:02.197Z,100558.28
2023-03-17T00:24:35.035Z,100559.94
2023-03-17T00:27:11.520Z,100561.47
2023-03-17T00:29:42.749Z,100558.66
2023-03-17T00:32:21.095Z,100551.03
2023-03-17T00:34:51.202Z,100558.66
2023-03-17T00:37:21.413Z,100548.25
2023-03-17T00:39:53.293Z,100548.63
2023-03-17T00:42:23.917Z,100546.97
2023-03-17T00:44:54.355Z,100544.19
2023-03-17T00:47:25.132Z,100543.38
2023-03-17T00:49:55.791Z,100532.16
2023-03-17T00:52:27.299Z,100532.47
2023-03-17T00:54:59.719Z,100538.47
2023-03-17T00:57:30.296Z,100537.66
2023-03-17T01:00:00.834Z,100543.25
2023-03-17T01:02:31.656Z,100547.28
2023-03-17T01:05:06.721Z,100538.03
2023-03-17T01:07:37.676Z,100538.41
2023-03-17T01:10:17.409Z,100537.56
2023-03-17T01:12:48.968Z,100541.22
2023-03-17T01:15:20.358Z,100531.94
2023-03-17T01:17:51.812Z,100541.22
2023-03-17T01:20:24.645Z,100531.16
2023-03-17T01:22:56.882Z,100533.97
2023-03-17T01:25:28.857Z,100529.53
2023-03-17T01:28:01.154Z,100525.06
2023-03-17T01:30:35.940Z,100539.94
2023-03-17T01:33:07.343Z,100537.13
2023-03-17T01:35:39.156Z,100523.44
2023-03-17T01:38:10.425Z,100519.00
2023-03-17T01:40:50.383Z,100525.00
2023-03-17T01:43:24.944Z,100519.75
2023-03-17T01:46:30.770Z,100519.75
2023-03-17T01:49:19.739Z,100523.75
2023-03-17T01:52:07.130Z,100520.94
2023-03-17T01:54:45.732Z,100524.53
2023-03-17T01:57:25.679Z,100523.38
2023-03-17T02:00:01.321Z,100523.75
2023-03-17T02:02:35.293Z,100518.47
2023-03-17T02:05:09.754Z,100519.31
2023-03-17T02:07:40.359Z,100516.50
2023-03-17T02:10:13.097Z,100520.09
2023-03-17T02:12:50.948Z,100516.50
2023-03-17T02:15:21.937Z,100516.03
2023-03-17T02:17:52.919Z,100520.84
2023-03-17T02:21:16.448Z,100523.66
2023-03-17T02:23:48.893Z,100524.00
2023-03-17T02:26:20.836Z,100518.38
2023-03-17T02:28:51.362Z,100524.00
2023-03-17T02:31:22.451Z,100523.66
2023-03-17T02:33:52.986Z,100518.84
2023-03-17T02:36:23.711Z,100523.28
2023-03-17T02:38:56.148Z,100520.09
2023-03-17T02:41:26.969Z,100518.94
2023-03-17T02:43:57.378Z,100516.94
2023-03-17T02:46:28.121Z,100513.75
2023-03-17T02:48:59.501Z,100509.78
2023-03-17T02:51:30.838Z,100515.41
2023-03-17T02:54:03.516Z,100504.97
2023-03-17T02:56:33.198Z,100512.22
2023-03-17T02:59:03.193Z,100510.59
2023-03-17T03:01:34.781Z,100512.59
2023-03-17T03:04:05.416Z,100508.16
2023-03-17T03:06:35.813Z,100507.31
2023-03-17T03:09:09.173Z,100506.53
2023-03-17T03:11:39.351Z,100511.34
2023-03-17T03:14:10.464Z,100504.16
2023-03-17T03:16:41.104Z,100512.59
2023-03-17T03:19:12.779Z,100504.16
2023-03-17T03:21:43.106Z,100497.38
2023-03-17T03:24:15.276Z,100501.44
2023-03-17T03:26:45.422Z,100498.25
2023-03-17T03:29:15.933Z,100506.34
2023-03-17T03:31:45.786Z,100499.53
2023-03-17T03:34:16.740Z,100514.00
2023-03-17T03:36:48.152Z,100511.19
2023-03-17T03:39:21.105Z,100506.03
2023-03-17T03:41:51.429Z,100507.66
2023-03-17T03:44:21.408Z,100503.69
2023-03-17T03:46:51.494Z,100514.91
2023-03-17T03:49:22.947Z,100514.53
2023-03-17T03:51:53.220Z,100509.75
2023-03-17T03:54:25.171Z,100511.38
2023-03-17T03:56:55.399Z,100505.78
2023-03-17T03:59:26.235Z,100508.56
2023-03-17T04:01:56.840Z,100516.63
2023-03-17T04:04:26.924Z,100519.44
2023-03-17T04:06:57.205Z,100522.69
2023-03-17T04:09:29.426Z,100514.72
2023-03-17T04:11:59.766Z,100519.97
2023-03-17T04:14:30.104Z,100520.78
2023-03-17T04:17:00.204Z,100525.22
2023-03-17T04:19:30.799Z,100520.41
2023-03-17T04:22:02.247Z,100533.28
2023-03-17T04:24:35.147Z,100538.53
2023-03-17T04:27:06.240Z,100539.34
2023-03-17T04:29:36.577Z,100541.41
2023-03-17T04:32:08.583Z,100551.09
2023-03-17T04:34:39.153Z,100547.56
2023-03-17T04:37:09.432Z,100560.09
2023-03-17T04:39:41.393Z,100551.31
2023-03-17T04:42:12.786Z,100556.19
2023-03-17T04:44:43.444Z,100559.44
2023-03-17T04:47:14.732Z,100568.78
2023-03-17T04:49:45.113Z,100564.88
2023-03-17T04:52:15.729Z,100560.50
2023-03-17T04:54:48.174Z,100569.84
2023-03-17T04:57:18.617Z,100571.91
2023-03-17T04:59:49.437Z,100581.63
2023-03-17T05:02:20.254Z,100584.50
2023-03-17T05:04:51.719Z,100592.63
2023-03-17T05:07:22.259Z,100606.75
2023-03-17T05:09:54.178Z,100617.34
2023-03-17T05:12:24.566Z,100611.81
2023-03-17T05:14:54.295Z,100630.38
2023-03-17T05:17:24.709Z,100637.72
2023-03-17T05:19:55.071Z,100635.41
2023-03-17T05:22:25.434Z,100646.03
2023-03-17T05:24:57.264Z,100647.41
2023-03-17T05:27:28.431Z,100657.16
2023-03-17T05:29:59.272Z,100660.50
2023-03-17T05:32:29.442Z,100657.03
2023-03-17T05:34:59.745Z,100655.97
2023-03-17T05:37:30.460Z,100665.75
2023-03-17T05:40:03.465Z,100665.91
2023-03-17T05:42:33.847Z,100660.41
2023-03-17T05:45:05.588Z,100668.19
2023-03-17T05:47:36.643Z,100660.28
2023-03-17T05:50:09.852Z,100668.88
2023-03-17T05:52:40.131Z,100665.72
2023-03-17T05:55:13.531Z,100664.63
2023-03-17T05:57:43.442Z,100665.13
2023-03-17T06:00:16.702Z,100669.28
2023-03-17T06:02:47.503Z,100675.03
2023-03-17T06:05:18.284Z,100667.13
2023-03-17T06:07:54.895Z,100668.09
2023-03-17T06:10:29.795Z,100676.72
2023-03-17T06:13:03.368Z,100671.25
2023-03-17T06:15:36.549Z,100675.41
2023-03-17T06:18:07.724Z,100674.72
2023-03-17T06:20:38.299Z,100678.09
2023-03-17T06:23:09.275Z,100685.09
2023-03-17T06:25:41.202Z,100681.19
2023-03-17T06:28:12.030Z,100687.38
2023-03-17T06:30:41.994Z,100688.31
2023-03-17T06:33:12.454Z,100697.31
2023-03-17T06:35:43.521Z,100696.22
2023-03-17T06:38:13.820Z,100689.47
2023-03-17T06:40:46.623Z,100700.09
2023-03-17T06:43:17.974Z,100699.81
2023-03-17T06:45:48.609Z,100695.88
2023-03-17T06:48:18.857Z,100706.09
2023-03-17T06:50:49.754Z,100710.63
2023-03-17T06:53:20.450Z,100709.91
2023-03-17T06:55:52.218Z,100710.81
2023-03-17T06:58:23.434Z,100706.44
2023-03-17T07:00:55.884Z,100718.63
2023-03-17T07:03:26.919Z,100712.69
2023-03-17T07:05:57.562Z,100717.22
2023-03-17T07:08:30.863Z,100709.66
2023-03-17T07:11:05.086Z,100716.59
2023-03-17T07:13:37.678Z,100724.78
2023-03-17T07:16:09.970Z,100715.94
2023-03-17T07:18:40.302Z,100725.72
2023-03-17T07:21:10.808Z,100717.28
2023-03-17T07:23:41.131Z,100723.84
2023-03-17T07:26:12.643Z,100727.13
2023-03-17T07:28:43.033Z,100726.41
2023-03-17T07:31:14.799Z,100733.75
2023-03-17T07:33:45.336Z,100729.34
2023-03-17T07:36:16.266Z,100732.63
2023-03-17T07:38:47.052Z,100725.41
2023-03-17T07:41:21.245Z,100729.47
2023-03-17T07:43:51.989Z,100728.28
2023-03-17T07:46:22.506Z,100723.47
2023-03-17T07:48:52.498Z,100727.94
2023-03-17T07:51:28.167Z,100717.06
2023-03-17T07:54:04.067Z,100716.31
2023-03-17T07:56:36.497Z,100721.19
2023-03-17T07:59:08.531Z,100720.41
2023-03-17T08:01:39.174Z,100720.06
2023-03-17T08:04:11.137Z,100731.41
2023-03-17T08:06:42.135Z,100722.50
2023-03-17T08:09:13.800Z,100723.78
2023-03-17T08:11:45.623Z,100722.16
2023-03-17T08:14:16.323Z,100718.97
2023-03-17T08:16:46.792Z,100716.94
2023-03-17T08:19:17.510Z,100716.97
2023-03-17T08:21:47.848Z,100725.09
2023-03-17T08:24:17.805Z,100719.84
2023-03-17T08:26:52.891Z,100729.97
2023-03-17T08:29:22.847Z,100724.31
2023-03-17T08:31:53.350Z,100728.00
2023-03-17T08:34:24.482Z,100730.00
2023-03-17T08:36:54.343Z,100717.44
2023-03-17T08:39:24.949Z,100719.91
2023-03-17T08:41:57.702Z,100725.16
2023-03-17T08:44:28.408Z,100727.63
2023-03-17T08:46:58.924Z,100721.53
2023-03-17T08:49:31.543Z,100716.72
2023-03-17T08:52:02.433Z,100726.84
2023-03-17T08:54:33.174Z,100720.78
2023-03-17T08:57:05.959Z,100716.72
2023-03-17T08:59:36.928Z,100713.88
2023-03-17T09:02:07.803Z,100711.88
2023-03-17T09:04:40.254Z,100716.75
2023-03-17T09:07:12.307Z,100713.91
2023-03-17T09:09:42.736Z,100721.19
2023-03-17T09:12:14.882Z,100720.78
2023-03-17T09:14:47.456Z,100710.66
2023-03-17T09:17:18.416Z,100714.28
2023-03-17T09:19:48.840Z,100710.66
2023-03-17T09:22:21.202Z,100713.06
2023-03-17T09:24:52.206Z,100707.38
2023-03-17T09:27:23.986Z,100709.84
2023-03-17T09:29:54.504Z,100707.78
2023-03-17T09:32:24.796Z,100712.69
2023-03-17T09:34:55.346Z,100704.56
2023-03-17T09:37:26.720Z,100709.00
2023-03-17T09:39:58.858Z,100704.16
2023-03-17T09:42:58.501Z,100702.53
2023-03-17T09:45:43.359Z,100702.09
2023-03-17T09:48:47.648Z,100702.13
2023-03-17T09:51:22.085Z,100700.50
2023-03-17T09:54:00.617Z,100694.41
2023-03-17T09:56:35.443Z,100693.22
2023-03-17T09:59:30.160Z,100689.16
2023-03-17T10:02:01.554Z,100687.94
2023-03-17T10:04:32.030Z,100679.44
2023-03-17T10:07:11.340Z,100688.34
2023-03-17T10:09:49.769Z,100678.59
2023-03-17T10:12:38.630Z,100676.97
2023-03-17T10:15:24.046Z,100669.69
2023-03-17T10:17:56.054Z,100666.84
2023-03-17T10:20:33.670Z,100668.47
2023-03-17T10:23:09.816Z,100662.00
2023-03-17T10:25:41.106Z,100660.78
2023-03-17T10:28:28.915Z,100654.69
2023-03-17T10:31:17.024Z,100646.59
2023-03-17T10:33:52.804Z,100642.94
2023-03-17T10:36:38.136Z,100641.31
2023-03-17T10:39:13.115Z,100637.28
2023-03-17T10:41:54.595Z,100635.22
2023-03-17T10:44:44.618Z,100628.75
2023-03-17T10:47:33.571Z,100631.59
2023-03-17T10:50:22.081Z,100627.53
2023-03-17T10:53:01.452Z,100630.38
2023-03-17T10:55:35.700Z,100628.34
2023-03-17T10:58:16.219Z,100623.50
2023-03-17T11:00:59.117Z,100625.91
2023-03-17T11:03:35.647Z,100615.38
2023-03-17T11:06:10.987Z,100619.03
2023-03-17T11:08:47.638Z,100617.41
2023-03-17T11:11:28.490Z,100617.81
2023-03-17T11:14:05.947Z,100613.75
2023-03-17T11:16:41.255Z,100609.31
2023-03-17T11:19:18.920Z,100616.19
2023-03-17T11:22:01.243Z,100612.97
2023-03-17T11:24:41.040Z,100610.94
2023-03-17T11:27:22.723Z,100610.53
2023-03-17T11:30:14.914Z,100610.53
2023-03-17T11:32:51.881Z,100605.22
2023-03-17T11:35:39.206Z,100603.22
2023-03-17T11:38:24.847Z,100596.31
2023-03-17T11:41:27.838Z,100596.31
2023-03-17T11:44:29.374Z,100592.69
2023-03-17T11:47:09.159Z,100591.47
2023-03-17T11:49:42.172Z,100583.78
2023-03-17T11:52:27.720Z,100588.63
2023-03-17T11:55:12.050Z,100583.38
2023-03-17T11:57:58.505Z,100578.94
2023-03-17T12:00:35.146Z,100583.34
2023-03-17T12:03:20.538Z,100583.78
2023-03-17T12:05:58.896Z,100581.34
2023-03-17T12:08:45.822Z,100578.91
2023-03-17T12:11:23.401Z,100586.19
2023-03-17T12:14:02.131Z,100581.31
2023-03-17T12:16:41.932Z,100570.00
2023-03-17T12:19:22.092Z,100576.03
2023-03-17T12:22:00.140Z,100574.81
2023-03-17T12:24:40.539Z,100572.38
2023-03-17T12:27:18.034Z,100576.84
2023-03-17T12:29:57.928Z,100571.16
2023-03-17T12:32:38.772Z,100581.69
2023-03-17T12:35:30.023Z,100578.84
2023-03-17T12:38:05.359Z,100571.53
2023-03-17T12:40:54.254Z,100571.94
2023-03-17T12:43:54.545Z,100579.63
2023-03-17T12:47:07.459Z,100580.81
2023-03-17T12:50:25.067Z,100577.16
2023-03-17T12:53:27.027Z,100574.66
2023-03-17T12:56:07.711Z,100584.34
2023-03-17T12:58:43.536Z,100576.25
2023-03-17T13:01:27.928Z,100567.75
2023-03-17T13:04:09.232Z,100564.06
2023-03-17T13:06:48.758Z,100568.53
2023-03-17T13:09:49.255Z,100575.38
2023-03-17T13:13:12.081Z,100583.00
2023-03-17T13:16:00.743Z,100581.78
2023-03-17T13:18:51.648Z,100580.16
2023-03-17T13:21:30.254Z,100576.06
2023-03-17T13:24:51.610Z,100578.47
2023-03-17T13:27:50.331Z,100590.50
2023-03-17T13:30:59.225Z,100585.59
2023-03-17T13:33:34.391Z,100583.56
2023-03-17T13:36:39.013Z,100587.16
2023-03-17T13:39:43.502Z,100580.63
2023-03-17T13:42:47.813Z,100590.69
2023-03-17T13:45:38.096Z,100586.97
2023-03-17T13:48:48.445Z,100590.97
2023-03-17T13:51:25.281Z,100589.31
2023-03-17T13:54:01.410Z,100599.72
2023-03-17T13:56:51.272Z,100595.25
2023-03-17T13:59:22.822Z,100603.28
2023-03-17T14:02:00.738Z,100588.31
2023-03-17T14:04:46.808Z,100600.41
2023-03-17T14:07:24.286Z,100600.72
2023-03-17T14:10:00.438Z,100600.69
2023-03-17T14:12:42.218Z,100597.41
2023-03-17T14:15:25.492Z,100596.97
2023-03-17T14:18:03.542Z,100607.78
2023-03-17T14:20:35.873Z,100604.13
2023-03-17T14:23:08.980Z,100607.72
2023-03-17T14:25:41.007Z,100609.72
2023-03-17T14:28:18.964Z,100609.63
2023-03-17T14:30:56.841Z,100606.75
2023-03-17T14:33:30.971Z,100610.75
2023-03-17T14:36:06.088Z,100611.50
2023-03-17T14:38:38.897Z,100605.81
2023-03-17T14:41:19.026Z,100610.25
2023-03-17T14:43:52.099Z,100608.97
2023-03-17T14:46:27.796Z,100611.75
2023-03-17T14:49:03.967Z,100614.91
2023-03-17T14:51:39.278Z,100606.41
2023-03-17T14:54:18.475Z,100610.81
2023-03-17T14:56:58.246Z,100608.31
2023-03-17T14:59:33.693Z,100608.25
2023-03-17T15:02:18.493Z,100612.69
2023-03-17T15:04:56.195Z,100609.41
2023-03-17T15:07:40.723Z,100615.44
2023-03-17T15:10:19.105Z,100609.38
2023-03-17T15:12:50.116Z,100626.31
2023-03-17T15:15:29.042Z,100625.47
2023-03-17T15:18:01.968Z,100633.94
2023-03-17T15:20:36.313Z,100628.69
2023-03-17T15:23:20.114Z,100634.72
2023-03-17T15:25:56.137Z,100627.00
2023-03-17T15:28:30.650Z,100625.34
2023-03-17T15:31:15.955Z,100628.13
2023-03-17T15:33:46.901Z,100639.81
2023-03-17T15:36:31.689Z,100645.00
2023-03-17T15:39:06.525Z,100641.75
2023-03-17T15:41:36.810Z,100648.97
2023-03-17T15:44:07.528Z,100640.88
2023-03-17T15:46:38.378Z,100636.47
2023-03-17T15:49:13.815Z,100648.09
2023-03-17T15:51:43.653Z,100643.66
2023-03-17T15:54:17.966Z,100644.44
2023-03-17T15:56:47.568Z,100648.00
2023-03-17T15:59:17.774Z,100650.38
2023-03-17T16:01:48.276Z,100656.41
2023-03-17T16:04:19.596Z,100651.97
2023-03-17T16:06:50.195Z,100655.97
2023-03-17T16:09:22.770Z,100661.63
2023-03-17T16:11:52.569Z,100662.00
2023-03-17T16:14:23.061Z,100661.56
2023-03-17T16:16:53.975Z,100659.09
2023-03-17T16:19:26.725Z,100655.47
2023-03-17T16:21:57.483Z,100660.69
2023-03-17T16:24:31.708Z,100660.25
2023-03-17T16:27:01.686Z,100660.63
2023-03-17T16:29:32.940Z,100668.28
2023-03-17T16:32:02.938Z,100664.19
2023-03-17T16:34:34.809Z,100659.75
2023-03-17T16:37:05.006Z,100668.59
2023-03-17T16:39:37.083Z,100669.78
2023-03-17T16:42:25.250Z,100672.16
2023-03-17T16:44:56.567Z,100670.91
2023-03-17T16:47:26.806Z,100669.28
2023-03-17T16:49:57.209Z,100668.47
2023-03-17T16:52:29.013Z,100668.84
2023-03-17T16:55:01.358Z,100671.66
2023-03-17T16:57:33.736Z,100670.41
2023-03-17T17:00:08.344Z,100677.25
2023-03-17T17:02:38.877Z,100673.19
2023-03-17T17:05:15.842Z,100687.28
2023-03-17T17:07:46.895Z,100682.34
2023-03-17T17:10:21.736Z,100687.19
2023-03-17T17:12:52.785Z,100692.38
2023-03-17T17:15:24.251Z,100695.19
2023-03-17T17:17:59.203Z,100692.75
2023-03-17T17:20:33.058Z,100692.31
2023-03-17T17:23:05.911Z,100692.69
2023-03-17T17:25:38.582Z,100689.44
2023-03-17T17:28:09.102Z,100694.63
2023-03-17T17:30:43.254Z,100695.81
2023-03-17T17:33:14.936Z,100700.66
2023-03-17T17:35:46.812Z,100698.19
2023-03-17T17:38:24.391Z,100700.22
2023-03-17T17:40:58.330Z,100701.78
2023-03-17T17:43:28.883Z,100704.59
2023-03-17T17:45:59.282Z,100706.59
2023-03-17T17:48:31.560Z,100710.59
2023-03-17T17:51:02.147Z,100708.94
2023-03-17T17:53:32.519Z,100713.78
2023-03-17T17:56:05.187Z,100712.16
2023-03-17T17:58:35.359Z,100711.34
2023-03-17T18:01:05.902Z,100716.53
2023-03-17T18:03:36.351Z,100718.53
2023-03-17T18:06:06.846Z,100721.72
2023-03-17T18:08:37.276Z,100714.47
2023-03-17T18:11:09.795Z,100722.13
2023-03-17T18:13:41.601Z,100716.84
2023-03-17T18:16:17.448Z,100722.84
2023-03-17T18:18:48.403Z,100720.41
2023-03-17T18:21:18.545Z,100717.59
2023-03-17T18:23:50.389Z,100718.78
2023-03-17T18:26:23.328Z,100722.78
2023-03-17T18:28:54.340Z,100722.34
2023-03-17T18:31:31.621Z,100721.53
2023-03-17T18:34:08.637Z,100721.91
2023-03-17T18:36:39.130Z,100723.06
2023-03-17T18:39:09.925Z,100727.06
2023-03-17T18:41:41.974Z,100719.00
2023-03-17T18:44:12.500Z,100712.56
2023-03-17T18:46:43.125Z,100712.94
2023-03-17T18:49:12.900Z,100723.41
2023-03-17T18:51:43.355Z,100720.13
2023-03-17T18:54:14.160Z,100720.50
2023-03-17T18:56:46.743Z,100714.06
2023-03-17T18:59:17.614Z,100709.53
2023-03-17T19:01:48.191Z,100713.13
2023-03-17T19:04:17.972Z,100709.03
2023-03-17T19:06:48.229Z,100705.69
2023-03-17T19:09:18.218Z,100702.31
2023-03-17T19:11:50.571Z,100693.81
2023-03-17T19:14:20.378Z,100692.56
2023-03-17T19:16:50.828Z,100690.13
2023-03-17T19:19:20.670Z,100702.19
2023-03-17T19:21:51.448Z,100702.19
2023-03-17T19:24:21.885Z,100698.56
2023-03-17T19:26:53.450Z,100701.38
2023-03-17T19:29:23.589Z,100700.22
2023-03-17T19:31:54.133Z,100694.94
2023-03-17T19:34:24.845Z,100686.47
2023-03-17T19:36:55.409Z,100688.50
2023-03-17T19:39:25.519Z,100681.25
2023-03-17T19:41:59.515Z,100684.06
2023-03-17T19:44:30.283Z,100684.44
2023-03-17T19:47:02.068Z,100680.78
2023-03-17T19:49:32.202Z,100677.97
2023-03-17T19:52:02.595Z,100675.53
2023-03-17T19:54:33.367Z,100676.72
2023-03-17T19:57:06.307Z,100671.09
2023-03-17T19:59:36.393Z,100665.81
2023-03-17T20:02:06.982Z,100669.84
2023-03-17T20:04:37.640Z,100669.00
2023-03-17T20:07:07.777Z,100668.22
2023-03-17T20:09:38.415Z,100666.56
2023-03-17T20:12:10.998Z,100660.13
2023-03-17T20:14:41.552Z,100661.69
2023-03-17T20:17:12.470Z,100656.88
2023-03-17T20:19:43.263Z,100648.78
2023-03-17T20:22:13.698Z,100649.97
2023-03-17T20:24:45.129Z,100648.34
2023-03-17T20:27:17.956Z,100642.72
2023-03-17T20:29:50.699Z,100648.72
2023-03-17T20:32:21.353Z,100654.72
2023-03-17T20:34:51.557Z,100648.28
2023-03-17T20:37:22.970Z,100652.28
2023-03-17T20:39:54.810Z,100647.03
2023-03-17T20:42:30.321Z,100643.41
2023-03-17T20:45:00.772Z,100638.97
2023-03-17T20:47:31.348Z,100630.88
2023-03-17T20:50:02.281Z,100627.25
2023-03-17T20:52:32.928Z,100625.63
2023-03-17T20:55:03.051Z,100625.19
2023-03-17T20:57:38.309Z,100627.53
2023-03-17T21:00:10.947Z,100618.69
2023-03-17T21:02:41.881Z,100618.22
2023-03-17T21:05:17.132Z,100618.59
2023-03-17T21:07:47.835Z,100616.53
2023-03-17T21:10:20.036Z,100612.88
2023-03-17T21:12:52.773Z,100610.91
2023-03-17T21:15:24.185Z,100611.25
2023-03-17T21:17:54.339Z,100604.84
2023-03-17T21:20:26.884Z,100604.00
2023-03-17T21:22:57.593Z,100602.41
2023-03-17T21:25:28.312Z,100600.78
2023-03-17T21:28:01.471Z,100594.31
2023-03-17T21:30:32.346Z,100604.75
2023-03-17T21:33:02.858Z,100591.03
2023-03-17T21:35:35.862Z,100596.66
2023-03-17T21:38:06.654Z,100596.66
2023-03-17T21:40:36.768Z,100595.41
2023-03-17T21:43:08.734Z,100583.00
2023-03-17T21:45:40.582Z,100579.72
2023-03-17T21:48:11.670Z,100580.91
2023-03-17T21:50:42.092Z,100580.09
2023-03-17T21:53:16.236Z,100581.28
2023-03-17T21:55:47.118Z,100582.81
2023-03-17T21:58:20.950Z,100578.38
2023-03-17T22:00:51.931Z,100575.50
2023-03-17T22:03:22.805Z,100570.22
2023-03-17T22:05:53.992Z,100573.41
2023-03-17T22:08:24.166Z,100563.34
2023-03-17T22:10:54.404Z,100566.53
2023-03-17T22:13:26.586Z,100560.91
2023-03-17T22:15:59.845Z,100562.91
2023-03-17T22:18:30.100Z,100566.09
2023-03-17T22:21:02.078Z,100559.66
2023-03-17T22:23:32.331Z,100556.84
2023-03-17T22:26:02.661Z,100557.66
2023-03-17T22:28:35.802Z,100556.84
2023-03-17T22:31:12.576Z,100545.97
2023-03-17T22:33:43.120Z,100543.97
2023-03-17T22:36:14.511Z,100541.97
2023-03-17T22:38:45.006Z,100547.13
2023-03-17T22:41:20.007Z,100542.34
2023-03-17T22:43:52.871Z,100549.16
2023-03-17T22:46:23.533Z,100551.13
2023-03-17T22:48:54.637Z,100543.06
2023-03-17T22:51:27.856Z,100541.09
2023-03-17T22:53:59.164Z,100549.53
2023-03-17T22:56:30.589Z,100550.72
2023-03-17T22:59:03.173Z,100550.72
2023-03-17T23:01:33.871Z,100551.88
2023-03-17T23:04:04.855Z,100556.69
2023-03-17T23:06:35.740Z,100547.44
2023-03-17T23:09:07.251Z,100552.63
2023-03-17T23:11:38.062Z,100556.22
2023-03-17T23:14:10.843Z,100553.78
2023-03-17T23:16:45.109Z,100554.19
2023-03-17T23:19:15.484Z,100551.72
2023-03-17T23:21:46.281Z,100556.16
2023-03-17T23:24:17.194Z,100557.34
2023-03-17T23:26:47.259Z,100552.94
2023-03-17T23:29:20.128Z,100540.06
2023-03-17T23:31:50.369Z,100546.84
2023-03-17T23:34:20.570Z,100540.41
2023-03-17T23:36:51.289Z,100537.16
2023-03-17T23:39:21.788Z,100533.53
2023-03-17T23:41:52.674Z,100534.69
2023-03-17T23:44:24.861Z,100529.09
2023-03-17T23:46:55.239Z,100527.44
2023-03-17T23:49:25.740Z,100520.19
2023-03-17T23:51:55.881Z,100515.75
2023-03-17T23:54:26.868Z,100518.16
2023-03-17T23:56:56.833Z,100518.94
2023-03-17T23:59:29.701Z,100515.69
